Time;durP1;ratioP1;P1;durP2;ratioP2;P2;SDS_P1;SDS_P2;PMS_P1;PMS_P2;Temp;Humidity;BMP_temperature;BMP_pressure;BME280_temperature;BME280_humidity;BME280_pressure;Samples;Min_cycle;Max_cycle;Signal;HPM_P1;HPM_P2
2023/03/13 00:00:29;;;;;;;7.40;3.10;;;;;;;2.95;87.39;98751.49;101537;293;24069;-33
2023/03/13 00:02:57;;;;;;;15.90;3.30;;;;;;;2.97;87.49;98741.89;101640;293;22506;-29
2023/03/13 00:05:22;;;;;;;9.60;3.30;;;;;;;3.03;87.07;98735.27;101616;293;22882;-33
2023/03/13 00:07:48;;;;;;;7.90;3.10;;;;;;;3.03;87.57;98736.45;101387;294;23004;-33
2023/03/13 00:10:14;;;;;;;9.40;4.10;;;;;;;3.05;88.09;98739.63;101391;293;24143;-29
2023/03/13 00:12:39;;;;;;;8.70;3.80;;;;;;;3.05;88.68;98737.31;101572;282;23017;-33
2023/03/13 00:15:05;;;;;;;11.20;4.10;;;;;;;3.06;88.98;98735.63;101400;294;24111;-33
2023/03/13 00:17:32;;;;;;;5.70;3.00;;;;;;;3.11;89.48;98737.88;101552;293;22841;-30
2023/03/13 00:19:58;;;;;;;11.80;3.50;;;;;;;3.20;89.09;98733.41;101636;293;22882;-32
2023/03/13 00:22:23;;;;;;;8.40;2.90;;;;;;;3.25;89.27;98737.12;101531;293;22692;-33
2023/03/13 00:24:49;;;;;;;7.60;3.60;;;;;;;3.35;89.26;98739.52;101525;293;24112;-32
2023/03/13 00:27:14;;;;;;;4.90;3.20;;;;;;;3.37;88.73;98740.80;101500;293;22886;-30
2023/03/13 00:29:40;;;;;;;5.60;3.30;;;;;;;3.35;89.52;98738.31;101556;293;24034;-29
2023/03/13 00:32:06;;;;;;;8.30;2.90;;;;;;;3.34;89.84;98734.77;101349;293;24743;-30
2023/03/13 00:34:31;;;;;;;8.40;4.30;;;;;;;3.37;89.92;98733.84;101426;293;23038;-38
2023/03/13 00:36:57;;;;;;;5.20;3.10;;;;;;;3.45;89.66;98734.05;101372;294;25305;-32
2023/03/13 00:39:22;;;;;;;5.00;3.20;;;;;;;3.42;90.06;98737.05;101489;293;22681;-28
2023/03/13 00:41:48;;;;;;;11.50;3.10;;;;;;;3.51;89.95;98739.10;101521;293;22670;-34
2023/03/13 00:44:13;;;;;;;11.50;3.30;;;;;;;3.44;90.39;98737.50;101551;293;24136;-33
2023/03/13 00:46:39;;;;;;;5.20;3.50;;;;;;;3.44;90.71;98734.11;101514;293;24071;-36
2023/03/13 00:49:05;;;;;;;7.00;3.40;;;;;;;3.44;90.93;98733.66;101418;294;24137;-33
2023/03/13 00:51:31;;;;;;;6.30;3.30;;;;;;;3.44;91.35;98735.44;101467;293;22879;-29
2023/03/13 00:54:00;;;;;;;7.70;2.70;;;;;;;3.47;91.30;98737.55;101572;293;24112;-28
2023/03/13 00:56:26;;;;;;;7.00;3.10;;;;;;;-75.40;35.97;39494.72;99490;293;1003108;-32
2023/03/13 00:58:52;;;;;;;10.80;3.80;;;;;;;-128.00;-1.00;-1.00;98191;293;1004021;-29
2023/03/13 01:01:22;;;;;;;9.60;3.70;;;;;;;-128.00;-1.00;-1.00;98005;293;1004248;-32
2023/03/13 01:03:54;;;;;;;6.70;3.60;;;;;;;-128.00;-1.00;-1.00;98015;293;1004268;-34
2023/03/13 01:06:21;;;;;;;8.50;2.30;;;;;;;-128.00;-1.00;-1.00;98143;293;1002338;-31
2023/03/13 01:08:47;;;;;;;6.20;3.20;;;;;;;-128.00;-1.00;-1.00;97986;287;1004407;-33
2023/03/13 01:11:14;;;;;;;7.50;3.20;;;;;;;-128.00;-1.00;-1.00;97831;294;1003653;-31
2023/03/13 01:13:40;;;;;;;7.60;4.20;;;;;;;-128.00;-1.00;-1.00;98132;293;1004061;-32
2023/03/13 01:16:09;;;;;;;5.90;3.10;;;;;;;-128.00;-1.00;-1.00;97958;293;1003633;-34
2023/03/13 01:18:36;;;;;;;14.00;3.40;;;;;;;-128.00;-1.00;-1.00;98026;293;1003739;-29
2023/03/13 01:21:02;;;;;;;12.40;4.00;;;;;;;-128.00;-1.00;-1.00;97979;293;1003398;-29
2023/03/13 01:23:28;;;;;;;7.70;2.90;;;;;;;-128.00;-1.00;-1.00;98126;295;1002863;-34
2023/03/13 01:25:54;;;;;;;4.60;2.50;;;;;;;-128.00;-1.00;-1.00;97955;293;1003515;-35
2023/03/13 01:28:20;;;;;;;10.10;3.60;;;;;;;-128.00;-1.00;-1.00;98119;293;1002958;-29
2023/03/13 01:30:46;;;;;;;13.70;3.00;;;;;;;-128.00;-1.00;-1.00;97879;294;1003697;-33
2023/03/13 01:33:12;;;;;;;7.60;3.00;;;;;;;-128.00;-1.00;-1.00;97989;293;1003529;-32
2023/03/13 01:35:37;;;;;;;7.30;1.90;;;;;;;-128.00;-1.00;-1.00;98125;293;1004083;-33
2023/03/13 01:38:03;;;;;;;3.80;2.50;;;;;;;-128.00;-1.00;-1.00;97953;293;1002908;-33
2023/03/13 01:40:29;;;;;;;4.90;2.30;;;;;;;-128.00;-1.00;-1.00;98013;293;1004344;-31
2023/03/13 01:42:56;;;;;;;6.90;2.90;;;;;;;-128.00;-1.00;-1.00;97881;294;1003444;-29
2023/03/13 01:45:46;;;;;;;3.90;2.40;;;;;;;-128.00;-1.00;-1.00;98069;293;1003653;-30
2023/03/13 01:48:11;;;;;;;8.30;3.10;;;;;;;-128.00;-1.00;-1.00;97997;293;1003202;-29
2023/03/13 01:50:37;;;;;;;4.80;2.50;;;;;;;-128.00;-1.00;-1.00;98118;293;1004569;-30
2023/03/13 01:53:03;;;;;;;6.40;3.10;;;;;;;-128.00;-1.00;-1.00;97997;293;1003553;-32
2023/03/13 01:55:28;;;;;;;8.10;3.80;;;;;;;-128.00;-1.00;-1.00;98019;293;1004812;-33
2023/03/13 01:57:54;;;;;;;5.60;2.80;;;;;;;-128.00;-1.00;-1.00;98041;293;1002523;-30
2023/03/13 02:00:22;;;;;;;8.50;2.70;;;;;;;-128.00;-1.00;-1.00;97939;293;1004276;-29
2023/03/13 02:02:50;;;;;;;10.40;2.80;;;;;;;-128.00;-1.00;-1.00;98109;293;1002895;-30
2023/03/13 02:05:18;;;;;;;8.60;3.20;;;;;;;-128.00;-1.00;-1.00;97999;293;1003074;-37
2023/03/13 02:07:47;;;;;;;4.80;3.10;;;;;;;-128.00;-1.00;-1.00;98005;293;1003114;-27
2023/03/13 02:10:13;;;;;;;9.20;3.60;;;;;;;-128.00;-1.00;-1.00;98002;293;1003278;-34
2023/03/13 02:12:39;;;;;;;7.30;3.40;;;;;;;-128.00;-1.00;-1.00;97932;293;1004448;-32
2023/03/13 02:15:11;;;;;;;4.50;2.10;;;;;;;-128.00;-1.00;-1.00;98133;293;1004882;-31
2023/03/13 02:17:37;;;;;;;6.50;2.90;;;;;;;-128.00;-1.00;-1.00;98001;293;1004627;-29
2023/03/13 02:20:03;;;;;;;4.60;3.00;;;;;;;-128.00;-1.00;-1.00;98038;293;1004855;-33
2023/03/13 02:23:01;;;;;;;2.70;1.70;;;;;;;-128.00;-1.00;-1.00;98190;293;1003024;-29
2023/03/13 02:25:42;;;;;;;7.40;3.70;;;;;;;-128.00;-1.00;-1.00;98129;293;1004328;-35
2023/03/13 02:28:16;;;;;;;5.50;2.60;;;;;;;-128.00;-1.00;-1.00;97909;294;1003367;-35
2023/03/13 02:30:43;;;;;;;5.70;2.60;;;;;;;-128.00;-1.00;-1.00;98042;293;1004308;-32
2023/03/13 02:33:10;;;;;;;7.60;2.90;;;;;;;-128.00;-1.00;-1.00;98016;293;1003391;-29
2023/03/13 02:35:35;;;;;;;3.20;2.50;;;;;;;-128.00;-1.00;-1.00;98006;293;1003340;-30
2023/03/13 02:38:03;;;;;;;4.30;2.80;;;;;;;-128.00;-1.00;-1.00;98016;293;1003148;-28
2023/03/13 02:40:30;;;;;;;6.10;2.80;;;;;;;-128.00;-1.00;-1.00;97920;293;1004334;-33
2023/03/13 02:42:58;;;;;;;3.20;2.70;;;;;;;-128.00;-1.00;-1.00;98076;293;1002705;-33
2023/03/13 02:45:24;;;;;;;7.30;3.70;;;;;;;-128.00;-1.00;-1.00;97944;293;1003215;-31
2023/03/13 02:47:49;;;;;;;5.10;3.80;;;;;;;-128.00;-1.00;-1.00;97865;282;1004311;-35
2023/03/13 02:50:16;;;;;;;3.90;3.20;;;;;;;-128.00;-1.00;-1.00;97985;293;1005536;-29
2023/03/13 02:52:44;;;;;;;6.40;3.60;;;;;;;-128.00;-1.00;-1.00;98005;282;1003188;-33
2023/03/13 02:55:13;;;;;;;4.60;2.90;;;;;;;-128.00;-1.00;-1.00;98034;293;1003123;-34
2023/03/13 02:57:38;;;;;;;4.30;3.00;;;;;;;-128.00;-1.00;-1.00;97912;293;1002905;-32
2023/03/13 03:00:05;;;;;;;14.00;3.90;;;;;;;-128.00;-1.00;-1.00;97922;293;1003001;-31
2023/03/13 03:02:31;;;;;;;3.30;2.60;;;;;;;-128.00;-1.00;-1.00;97971;293;1003402;-29
2023/03/13 03:04:57;;;;;;;5.80;3.60;;;;;;;-128.00;-1.00;-1.00;97977;293;1004680;-29
2023/03/13 03:07:23;;;;;;;4.50;3.20;;;;;;;-128.00;-1.00;-1.00;98120;293;1004794;-33
2023/03/13 03:09:49;;;;;;;4.30;3.30;;;;;;;-128.00;-1.00;-1.00;97982;293;1003727;-32
2023/03/13 03:12:14;;;;;;;4.50;3.00;;;;;;;-128.00;-1.00;-1.00;98035;293;1003108;-28
2023/03/13 03:14:40;;;;;;;6.90;4.10;;;;;;;-128.00;-1.00;-1.00;98023;293;1003910;-33
2023/03/13 03:17:05;;;;;;;3.90;2.90;;;;;;;-128.00;-1.00;-1.00;97958;293;1005473;-29
2023/03/13 03:19:31;;;;;;;6.00;4.20;;;;;;;-128.00;-1.00;-1.00;97899;293;1004749;-29
2023/03/13 03:21:57;;;;;;;5.30;3.30;;;;;;;-128.00;-1.00;-1.00;98003;293;1003831;-31
2023/03/13 03:24:22;;;;;;;5.40;3.60;;;;;;;-128.00;-1.00;-1.00;98097;293;1005488;-30
2023/03/13 03:26:48;;;;;;;25.10;2.70;;;;;;;-128.00;-1.00;-1.00;97953;293;1003507;-31
2023/03/13 03:29:13;;;;;;;4.90;3.20;;;;;;;-128.00;-1.00;-1.00;98100;293;1005263;-33
2023/03/13 03:31:39;;;;;;;7.50;4.20;;;;;;;-128.00;-1.00;-1.00;98067;293;1004306;-39
2023/03/13 03:34:04;;;;;;;5.90;4.90;;;;;;;-128.00;-1.00;-1.00;98064;293;1003214;-30
2023/03/13 03:36:30;;;;;;;7.20;3.70;;;;;;;-128.00;-1.00;-1.00;97888;293;1003081;-31
2023/03/13 03:38:56;;;;;;;8.20;5.40;;;;;;;-128.00;-1.00;-1.00;97876;293;1005049;-29
2023/03/13 03:41:21;;;;;;;8.30;5.50;;;;;;;-128.00;-1.00;-1.00;97969;293;1003910;-37
2023/03/13 03:43:48;;;;;;;6.30;4.80;;;;;;;-128.00;-1.00;-1.00;98012;285;1004276;-33
2023/03/13 03:46:14;;;;;;;9.40;5.30;;;;;;;-128.00;-1.00;-1.00;97950;293;1004983;-29
2023/03/13 03:48:39;;;;;;;8.10;5.20;;;;;;;-128.00;-1.00;-1.00;97764;293;1004008;-29
2023/03/13 03:51:05;;;;;;;10.40;5.80;;;;;;;-128.00;-1.00;-1.00;97799;285;1003196;-29
2023/03/13 03:53:31;;;;;;;9.30;6.30;;;;;;;-128.00;-1.00;-1.00;98068;293;1002648;-29
2023/03/13 03:55:58;;;;;;;11.10;6.00;;;;;;;-128.00;-1.00;-1.00;97992;293;1003233;-33
2023/03/13 03:58:23;;;;;;;9.00;5.00;;;;;;;-128.00;-1.00;-1.00;97908;293;1003766;-33
2023/03/13 04:00:49;;;;;;;8.70;5.90;;;;;;;-128.00;-1.00;-1.00;98027;293;1003202;-29
2023/03/13 04:03:15;;;;;;;6.60;5.40;;;;;;;-128.00;-1.00;-1.00;98170;293;1003486;-29
2023/03/13 04:05:41;;;;;;;9.90;6.20;;;;;;;-128.00;-1.00;-1.00;97982;293;1004257;-29
2023/03/13 04:08:08;;;;;;;8.50;5.60;;;;;;;-128.00;-1.00;-1.00;98013;293;1003014;-31
2023/03/13 04:10:34;;;;;;;9.40;6.30;;;;;;;-128.00;-1.00;-1.00;97920;293;1004844;-32
2023/03/13 04:13:00;;;;;;;8.60;5.70;;;;;;;-128.00;-1.00;-1.00;98027;294;1004405;-35
2023/03/13 04:15:25;;;;;;;10.30;6.20;;;;;;;-128.00;-1.00;-1.00;98089;293;1002904;-33
2023/03/13 04:17:51;;;;;;;9.20;7.00;;;;;;;-128.00;-1.00;-1.00;97957;283;1004118;-30
2023/03/13 04:20:17;;;;;;;18.10;7.00;;;;;;;-128.00;-1.00;-1.00;98067;293;1003425;-30
2023/03/13 04:22:43;;;;;;;14.80;5.90;;;;;;;-128.00;-1.00;-1.00;97982;293;1003145;-29
2023/03/13 04:25:09;;;;;;;20.40;5.60;;;;;;;-128.00;-1.00;-1.00;98164;293;1003028;-29
2023/03/13 04:27:34;;;;;;;5.30;4.50;;;;;;;-128.00;-1.00;-1.00;97975;293;1002974;-30
2023/03/13 04:30:00;;;;;;;11.40;7.20;;;;;;;-128.00;-1.00;-1.00;97975;293;1003416;-33
2023/03/13 04:32:25;;;;;;;9.70;5.80;;;;;;;-128.00;-1.00;-1.00;98038;293;1004178;-29
2023/03/13 04:34:51;;;;;;;13.10;6.60;;;;;;;-128.00;-1.00;-1.00;98128;293;1003067;-33
2023/03/13 05:16:16;;;;;;;12.20;5.70;;;;;;;-101.74;19.20;19742.95;19562;284;8046126;-33
2023/03/13 05:18:42;;;;;;;5.70;4.90;;;;;;;-128.00;-1.00;-1.00;18078;291;7504707;-33
2023/03/13 05:21:08;;;;;;;14.10;6.20;;;;;;;-128.00;-1.00;-1.00;18468;289;7504558;-30
2023/03/13 05:23:34;;;;;;;7.50;5.40;;;;;;;-128.00;-1.00;-1.00;18487;296;7504917;-31
2023/03/13 05:26:00;;;;;;;6.20;4.30;;;;;;;-128.00;-1.00;-1.00;18890;289;7505086;-31
2023/03/13 05:28:26;;;;;;;7.30;4.50;;;;;;;-128.00;-1.00;-1.00;18883;308;7505316;-31
2023/03/13 05:30:52;;;;;;;7.60;5.00;;;;;;;-128.00;-1.00;-1.00;18877;285;7505012;-31
2023/03/13 05:33:19;;;;;;;9.40;5.40;;;;;;;-128.00;-1.00;-1.00;18901;297;7504390;-31
2023/03/13 05:35:45;;;;;;;5.80;4.30;;;;;;;-128.00;-1.00;-1.00;18480;297;7505131;-31
2023/03/13 05:38:11;;;;;;;13.00;3.70;;;;;;;-128.00;-1.00;-1.00;18446;348;7507134;-33
2023/03/13 05:40:37;;;;;;;5.60;4.00;;;;;;;-128.00;-1.00;-1.00;18461;297;7504397;-34
2023/03/13 05:43:03;;;;;;;5.80;4.40;;;;;;;-128.00;-1.00;-1.00;18513;289;7506117;-30
2023/03/13 05:45:29;;;;;;;7.80;5.10;;;;;;;-128.00;-1.00;-1.00;18443;297;7504830;-30
2023/03/13 05:47:54;;;;;;;8.70;4.10;;;;;;;-128.00;-1.00;-1.00;18465;348;7505871;-35
2023/03/13 05:50:20;;;;;;;10.90;4.20;;;;;;;-128.00;-1.00;-1.00;18460;289;7506541;-31
2023/03/13 05:52:46;;;;;;;9.50;5.70;;;;;;;-128.00;-1.00;-1.00;18882;285;7504901;-34
2023/03/13 05:55:12;;;;;;;8.60;5.00;;;;;;;-128.00;-1.00;-1.00;18886;289;7504607;-32
2023/03/13 05:57:39;;;;;;;7.00;5.10;;;;;;;-128.00;-1.00;-1.00;18870;289;7504641;-31
2023/03/13 06:00:07;;;;;;;9.90;5.70;;;;;;;-128.00;-1.00;-1.00;18873;289;7504941;-31
2023/03/13 06:02:32;;;;;;;13.40;4.90;;;;;;;-128.00;-1.00;-1.00;18475;289;7505993;-34
2023/03/13 06:04:58;;;;;;;10.10;4.60;;;;;;;-128.00;-1.00;-1.00;18482;285;7504648;-31
2023/03/13 06:07:24;;;;;;;7.40;4.90;;;;;;;-128.00;-1.00;-1.00;18459;289;7504341;-34
2023/03/13 06:09:50;;;;;;;10.70;5.00;;;;;;;-128.00;-1.00;-1.00;18476;285;7504125;-36
2023/03/13 06:12:16;;;;;;;15.20;5.30;;;;;;;-128.00;-1.00;-1.00;18874;285;7505037;-35
2023/03/13 06:14:42;;;;;;;7.30;5.70;;;;;;;-128.00;-1.00;-1.00;18881;348;7505565;-31
2023/03/13 06:17:08;;;;;;;7.20;5.90;;;;;;;-128.00;-1.00;-1.00;18885;345;7504708;-31
2023/03/13 06:19:34;;;;;;;4.70;3.60;;;;;;;-128.00;-1.00;-1.00;18470;289;7506123;-35
2023/03/13 06:22:00;;;;;;;10.30;5.30;;;;;;;-128.00;-1.00;-1.00;18871;296;7505256;-35
2023/03/13 06:24:27;;;;;;;12.90;5.60;;;;;;;-128.00;-1.00;-1.00;18866;305;7505179;-31
2023/03/13 06:26:53;;;;;;;5.90;4.00;;;;;;;-128.00;-1.00;-1.00;18495;308;7504975;-30
2023/03/13 06:29:18;;;;;;;6.60;4.70;;;;;;;-128.00;-1.00;-1.00;18493;285;7504346;-33
2023/03/13 06:31:44;;;;;;;11.40;5.00;;;;;;;-128.00;-1.00;-1.00;18873;348;7504529;-31
2023/03/13 06:34:11;;;;;;;10.20;5.50;;;;;;;-128.00;-1.00;-1.00;18902;285;7504516;-33
2023/03/13 06:36:37;;;;;;;8.20;4.90;;;;;;;-128.00;-1.00;-1.00;18479;285;7505309;-33
2023/03/13 06:39:03;;;;;;;8.20;5.00;;;;;;;-128.00;-1.00;-1.00;18878;289;7504418;-31
2023/03/13 06:41:29;;;;;;;7.90;5.40;;;;;;;-128.00;-1.00;-1.00;18868;289;7504506;-30
2023/03/13 06:43:55;;;;;;;6.90;5.10;;;;;;;-128.00;-1.00;-1.00;18868;337;7504984;-35
2023/03/13 06:46:22;;;;;;;7.80;5.10;;;;;;;-128.00;-1.00;-1.00;18879;348;7505147;-33
2023/03/13 06:48:49;;;;;;;9.90;5.50;;;;;;;-128.00;-1.00;-1.00;18494;348;7504389;-31
2023/03/13 06:51:16;;;;;;;14.80;4.50;;;;;;;-128.00;-1.00;-1.00;18461;348;7504518;-35
2023/03/13 06:53:42;;;;;;;11.00;4.70;;;;;;;-128.00;-1.00;-1.00;18482;285;7504336;-34
2023/03/13 06:56:08;;;;;;;10.30;5.00;;;;;;;-128.00;-1.00;-1.00;18456;322;7504982;-30
2023/03/13 06:58:34;;;;;;;9.60;4.60;;;;;;;-128.00;-1.00;-1.00;18468;289;7504103;-31
2023/03/13 07:01:05;;;;;;;4.60;2.70;;;;;;;-128.00;-1.00;-1.00;18459;285;7505736;-31
2023/03/13 07:03:31;;;;;;;25.60;5.00;;;;;;;-128.00;-1.00;-1.00;18465;297;7504775;-30
2023/03/13 07:05:57;;;;;;;18.00;3.70;;;;;;;-128.00;-1.00;-1.00;18459;297;7504745;-31
2023/03/13 07:08:24;;;;;;;10.30;4.70;;;;;;;-128.00;-1.00;-1.00;18497;297;7504450;-34
2023/03/13 07:10:51;;;;;;;15.70;4.60;;;;;;;-128.00;-1.00;-1.00;18459;297;7505458;-35
2023/03/13 07:13:20;;;;;;;14.90;5.00;;;;;;;-128.00;-1.00;-1.00;18486;296;7504450;-34
2023/03/13 07:15:47;;;;;;;6.00;4.00;;;;;;;-128.00;-1.00;-1.00;18476;285;7504714;-33
2023/03/13 07:18:13;;;;;;;6.60;5.00;;;;;;;-128.00;-1.00;-1.00;18466;296;7505287;-34
2023/03/13 07:20:39;;;;;;;9.10;4.30;;;;;;;-128.00;-1.00;-1.00;18472;297;7506179;-34
2023/03/13 07:23:05;;;;;;;19.40;4.50;;;;;;;-128.00;-1.00;-1.00;18478;289;7506458;-31
2023/03/13 07:25:31;;;;;;;6.40;4.30;;;;;;;-128.00;-1.00;-1.00;18860;289;7504211;-31
2023/03/13 07:27:59;;;;;;;8.00;4.50;;;;;;;-128.00;-1.00;-1.00;18864;289;7504751;-34
2023/03/13 07:30:26;;;;;;;16.50;4.60;;;;;;;-128.00;-1.00;-1.00;18467;289;7505288;-34
2023/03/13 07:32:51;;;;;;;10.90;4.90;;;;;;;-128.00;-1.00;-1.00;18472;289;7504912;-35
2023/03/13 07:35:17;;;;;;;12.60;3.90;;;;;;;-128.00;-1.00;-1.00;18472;297;7505080;-32
2023/03/13 07:37:43;;;;;;;8.50;4.00;;;;;;;-128.00;-1.00;-1.00;18868;348;7505407;-32
2023/03/13 07:40:10;;;;;;;12.50;5.00;;;;;;;-128.00;-1.00;-1.00;18864;297;7504897;-32
2023/03/13 07:42:39;;;;;;;5.30;4.00;;;;;;;-128.00;-1.00;-1.00;18476;340;7504182;-30
2023/03/13 07:45:05;;;;;;;5.60;3.40;;;;;;;-128.00;-1.00;-1.00;18480;289;7505947;-34
2023/03/13 07:47:33;;;;;;;6.20;2.70;;;;;;;-128.00;-1.00;-1.00;18468;312;7504422;-35
2023/03/13 07:49:59;;;;;;;15.10;3.00;;;;;;;-128.00;-1.00;-1.00;18479;297;7504533;-35
2023/03/13 07:52:26;;;;;;;8.70;3.10;;;;;;;-128.00;-1.00;-1.00;18499;289;7506087;-35
2023/03/13 07:54:53;;;;;;;7.10;2.90;;;;;;;-128.00;-1.00;-1.00;18457;308;7506422;-33
2023/03/13 07:57:19;;;;;;;8.60;2.30;;;;;;;-128.00;-1.00;-1.00;18467;296;7504333;-32
2023/03/13 07:59:44;;;;;;;5.20;2.20;;;;;;;-128.00;-1.00;-1.00;18435;297;7505204;-35
2023/03/13 08:02:12;;;;;;;9.00;3.80;;;;;;;-128.00;-1.00;-1.00;18471;289;7505191;-31
2023/03/13 08:04:39;;;;;;;5.90;3.50;;;;;;;-128.00;-1.00;-1.00;18468;285;7505190;-31
2023/03/13 08:07:08;;;;;;;7.00;3.50;;;;;;;-128.00;-1.00;-1.00;18438;297;7504602;-31
2023/03/13 08:09:34;;;;;;;26.70;2.90;;;;;;;-128.00;-1.00;-1.00;18486;297;7504461;-31
2023/03/13 08:12:00;;;;;;;7.50;2.70;;;;;;;-128.00;-1.00;-1.00;18448;297;7506144;-31
2023/03/13 08:14:25;;;;;;;9.80;3.10;;;;;;;-128.00;-1.00;-1.00;18447;298;7506979;-31
2023/03/13 08:16:51;;;;;;;19.50;4.30;;;;;;;-128.00;-1.00;-1.00;18446;297;7506239;-35
2023/03/13 08:19:17;;;;;;;8.30;3.20;;;;;;;-128.00;-1.00;-1.00;18851;297;7504629;-35
2023/03/13 08:21:45;;;;;;;3.80;2.40;;;;;;;-128.00;-1.00;-1.00;18481;348;7504823;-31
2023/03/13 08:24:12;;;;;;;8.10;3.30;;;;;;;-128.00;-1.00;-1.00;18858;297;7504580;-31
2023/03/13 08:26:41;;;;;;;6.80;2.70;;;;;;;-128.00;-1.00;-1.00;18861;337;7505932;-36
2023/03/13 08:29:12;;;;;;;4.90;2.20;;;;;;;-128.00;-1.00;-1.00;18453;298;7504702;-32
2023/03/13 08:31:46;;;;;;;20.50;3.70;;;;;;;-128.00;-1.00;-1.00;18427;323;7506099;-36
2023/03/13 08:34:12;;;;;;;7.00;2.30;;;;;;;-128.00;-1.00;-1.00;18457;337;7504571;-36
2023/03/13 08:36:38;;;;;;;12.10;2.70;;;;;;;-128.00;-1.00;-1.00;18469;289;7504354;-32
2023/03/13 08:39:06;;;;;;;16.70;2.20;;;;;;;-128.00;-1.00;-1.00;18453;289;7506241;-34
2023/03/13 08:41:35;;;;;;;4.00;1.80;;;;;;;-128.00;-1.00;-1.00;18455;297;7506102;-30
2023/03/13 08:44:01;;;;;;;13.30;2.70;;;;;;;-128.00;-1.00;-1.00;18458;297;7504763;-35
2023/03/13 08:46:31;;;;;;;4.50;1.30;;;;;;;-128.00;-1.00;-1.00;18468;285;7505010;-34
2023/03/13 08:48:56;;;;;;;7.50;2.00;;;;;;;-128.00;-1.00;-1.00;18472;337;7506048;-32
2023/03/13 08:51:24;;;;;;;10.00;2.60;;;;;;;-128.00;-1.00;-1.00;18473;289;7504849;-35
2023/03/13 08:53:50;;;;;;;8.30;2.20;;;;;;;-128.00;-1.00;-1.00;18472;289;7504766;-36
2023/03/13 08:56:17;;;;;;;7.40;2.20;;;;;;;-128.00;-1.00;-1.00;18478;289;7505206;-32
2023/03/13 08:58:43;;;;;;;9.80;2.90;;;;;;;-128.00;-1.00;-1.00;18453;346;7504981;-32
2023/03/13 09:01:10;;;;;;;10.50;1.40;;;;;;;-128.00;-1.00;-1.00;18450;332;7504301;-36
2023/03/13 09:03:36;;;;;;;6.70;1.80;;;;;;;-128.00;-1.00;-1.00;18465;285;7504909;-33
2023/03/13 09:06:01;;;;;;;4.50;2.30;;;;;;;-128.00;-1.00;-1.00;18448;340;7504512;-34
2023/03/13 09:08:27;;;;;;;6.60;1.80;;;;;;;-128.00;-1.00;-1.00;18463;297;7504987;-34
2023/03/13 09:10:55;;;;;;;10.20;3.20;;;;;;;-128.00;-1.00;-1.00;18468;285;7504918;-35
2023/03/13 09:13:21;;;;;;;3.60;1.80;;;;;;;-128.00;-1.00;-1.00;18455;284;7505281;-31
2023/03/13 09:15:56;;;;;;;3.50;1.10;;;;;;;-128.00;-1.00;-1.00;18469;297;7503989;-30
2023/03/13 09:18:22;;;;;;;3.90;2.30;;;;;;;-128.00;-1.00;-1.00;18462;297;7505984;-35
2023/03/13 09:20:47;;;;;;;6.70;2.20;;;;;;;-128.00;-1.00;-1.00;18486;348;7506191;-31
2023/03/13 09:23:13;;;;;;;7.30;2.10;;;;;;;-128.00;-1.00;-1.00;18478;289;7504121;-35
2023/03/13 09:25:39;;;;;;;6.90;2.60;;;;;;;-128.00;-1.00;-1.00;18881;285;7505218;-32
2023/03/13 09:28:05;;;;;;;5.80;2.30;;;;;;;-128.00;-1.00;-1.00;18889;297;7505471;-31
2023/03/13 09:30:31;;;;;;;4.90;2.00;;;;;;;-128.00;-1.00;-1.00;18859;297;7505973;-31
2023/03/13 09:32:58;;;;;;;8.20;3.20;;;;;;;-128.00;-1.00;-1.00;18879;297;7504737;-34
2023/03/13 09:35:24;;;;;;;10.60;3.20;;;;;;;-128.00;-1.00;-1.00;18862;297;7505401;-31
2023/03/13 09:37:50;;;;;;;2.90;2.10;;;;;;;-128.00;-1.00;-1.00;18464;332;7504402;-31
2023/03/13 09:40:16;;;;;;;6.60;1.90;;;;;;;-128.00;-1.00;-1.00;18496;297;7506301;-34
2023/03/13 09:42:48;;;;;;;6.20;1.80;;;;;;;-128.00;-1.00;-1.00;18468;289;7506198;-35
2023/03/13 09:45:21;;;;;;;6.00;2.10;;;;;;;-128.00;-1.00;-1.00;18455;285;7504380;-30
2023/03/13 09:47:51;;;;;;;18.80;2.50;;;;;;;-128.00;-1.00;-1.00;18487;285;7504855;-32
2023/03/13 09:50:22;;;;;;;5.60;2.50;;;;;;;-128.00;-1.00;-1.00;18450;298;7504927;-35
2023/03/13 09:52:48;;;;;;;2.70;1.60;;;;;;;-128.00;-1.00;-1.00;18472;289;7505110;-31
2023/03/13 09:55:20;;;;;;;5.60;1.50;;;;;;;-128.00;-1.00;-1.00;18476;285;7506309;-36
2023/03/13 09:57:52;;;;;;;6.50;2.80;;;;;;;-128.00;-1.00;-1.00;18461;297;7504202;-35
2023/03/13 10:00:23;;;;;;;6.70;1.50;;;;;;;-128.00;-1.00;-1.00;18443;289;7505131;-31
2023/03/13 10:02:58;;;;;;;8.70;2.50;;;;;;;-128.00;-1.00;-1.00;18465;296;7504857;-35
2023/03/13 10:05:25;;;;;;;7.00;2.50;;;;;;;-128.00;-1.00;-1.00;18457;297;7505345;-35
2023/03/13 10:07:55;;;;;;;10.80;2.50;;;;;;;-128.00;-1.00;-1.00;18480;289;7504250;-32
2023/03/13 10:10:34;;;;;;;6.90;1.80;;;;;;;-128.00;-1.00;-1.00;18506;297;7506400;-32
2023/03/13 10:13:06;;;;;;;4.60;1.60;;;;;;;-128.00;-1.00;-1.00;18478;296;7504595;-31
2023/03/13 10:15:38;;;;;;;3.70;1.90;;;;;;;-128.00;-1.00;-1.00;18455;348;7505632;-32
2023/03/13 10:18:16;;;;;;;6.10;2.20;;;;;;;-128.00;-1.00;-1.00;18466;297;7505037;-35
2023/03/13 10:20:43;;;;;;;14.70;2.40;;;;;;;-128.00;-1.00;-1.00;18470;320;7505142;-31
2023/03/13 10:23:27;;;;;;;8.50;2.10;;;;;;;-128.00;-1.00;-1.00;18481;289;7506553;-35
2023/03/13 10:25:53;;;;;;;11.70;2.10;;;;;;;-128.00;-1.00;-1.00;18462;297;7506024;-34
2023/03/13 10:28:19;;;;;;;3.30;1.40;;;;;;;-128.00;-1.00;-1.00;18501;289;7504879;-34
2023/03/13 10:30:51;;;;;;;4.00;1.90;;;;;;;-128.00;-1.00;-1.00;18461;348;7506183;-30
2023/03/13 10:33:23;;;;;;;;;;;;;;;-128.00;-1.00;-1.00;18471;322;7505097;-34
2023/03/13 10:36:10;;;;;;;5.90;1.70;;;;;;;-128.00;-1.00;-1.00;18461;296;7506101;-35
2023/03/13 10:38:49;;;;;;;3.70;1.30;;;;;;;-128.00;-1.00;-1.00;18495;285;7504411;-31
2023/03/13 10:41:24;;;;;;;8.80;1.40;;;;;;;-128.00;-1.00;-1.00;18499;348;7504358;-34
2023/03/13 10:44:00;;;;;;;11.60;1.90;;;;;;;-128.00;-1.00;-1.00;18477;285;7504868;-34
2023/03/13 10:46:28;;;;;;;13.30;1.90;;;;;;;-128.00;-1.00;-1.00;18440;296;7506037;-31
2023/03/13 10:48:55;;;;;;;3.60;1.50;;;;;;;-128.00;-1.00;-1.00;18457;297;7504557;-31
2023/03/13 10:51:23;;;;;;;10.30;2.10;;;;;;;-128.00;-1.00;-1.00;18465;289;7505770;-34
2023/03/13 10:53:50;;;;;;;7.90;1.70;;;;;;;-128.00;-1.00;-1.00;18455;289;7504553;-31
2023/03/13 10:56:22;;;;;;;6.60;1.50;;;;;;;-128.00;-1.00;-1.00;18468;289;7504118;-34
2023/03/13 10:58:49;;;;;;;7.80;1.30;;;;;;;-128.00;-1.00;-1.00;18450;297;7504437;-32
2023/03/13 11:01:21;;;;;;;3.40;1.30;;;;;;;-128.00;-1.00;-1.00;18475;297;7504350;-35
2023/03/13 11:03:48;;;;;;;4.00;1.50;;;;;;;-128.00;-1.00;-1.00;18471;297;7504901;-31
2023/03/13 11:45:48;;;;;;;5.30;2.30;;;;;;;-100.52;18.13;19655.85;98271;285;1543631;-30
2023/03/13 11:48:34;;;;;;;14.80;1.90;;;;;;;-128.00;-1.00;-1.00;93548;297;3003160;-32
2023/03/13 11:51:16;;;;;;;7.00;2.70;;;;;;;-128.00;-1.00;-1.00;41546;296;7504090;-37
2023/03/13 11:54:00;;;;;;;17.20;2.70;;;;;;;-128.00;-1.00;-1.00;18533;296;7506385;-36
2023/03/13 11:56:29;;;;;;;4.20;2.10;;;;;;;-128.00;-1.00;-1.00;18488;296;7505347;-34
2023/03/13 11:59:18;;;;;;;5.50;1.60;;;;;;;-128.00;-1.00;-1.00;18478;296;7505159;-37
2023/03/13 12:01:48;;;;;;;3.20;1.80;;;;;;;-128.00;-1.00;-1.00;18500;300;7506199;-37
2023/03/13 12:04:22;;;;;;;12.30;2.40;;;;;;;-128.00;-1.00;-1.00;18495;296;7504295;-33
2023/03/13 12:06:54;;;;;;;9.50;3.00;;;;;;;-128.00;-1.00;-1.00;18485;308;7504685;-34
2023/03/13 12:09:32;;;;;;;14.70;4.80;;;;;;;-128.00;-1.00;-1.00;18465;297;7504257;-33
2023/03/13 12:12:11;;;;;;;10.10;2.40;;;;;;;-128.00;-1.00;-1.00;18476;288;7504624;-33
2023/03/13 12:14:39;;;;;;;7.90;2.40;;;;;;;-128.00;-1.00;-1.00;18473;296;7504832;-33
2023/03/13 12:17:28;;;;;;;5.80;1.60;;;;;;;-128.00;-1.00;-1.00;18466;296;7504630;-36
2023/03/13 12:19:58;;;;;;;8.90;2.10;;;;;;;-128.00;-1.00;-1.00;18472;348;7505785;-37
2023/03/13 12:22:34;;;;;;;5.40;2.10;;;;;;;-128.00;-1.00;-1.00;18491;348;7505760;-33
2023/03/13 12:25:02;;;;;;;14.60;2.30;;;;;;;-128.00;-1.00;-1.00;18459;288;7504394;-32
2023/03/13 12:27:37;;;;;;;10.60;1.90;;;;;;;-128.00;-1.00;-1.00;18468;288;7504315;-37
2023/03/13 12:30:30;;;;;;;10.70;2.00;;;;;;;-128.00;-1.00;-1.00;18507;288;7505972;-37
2023/03/13 12:33:11;;;;;;;10.20;2.40;;;;;;;-128.00;-1.00;-1.00;18470;288;7504542;-36
2023/03/13 12:35:37;;;;;;;10.30;1.90;;;;;;;-128.00;-1.00;-1.00;18499;296;7504780;-35
2023/03/13 12:38:15;;;;;;;6.20;1.10;;;;;;;-128.00;-1.00;-1.00;18469;297;7506807;-31
2023/03/13 12:40:48;;;;;;;6.40;3.30;;;;;;;-128.00;-1.00;-1.00;18460;296;7506277;-31
2023/03/13 12:43:18;;;;;;;5.60;2.30;;;;;;;-128.00;-1.00;-1.00;18475;296;7504998;-35
2023/03/13 12:45:59;;;;;;;9.60;2.00;;;;;;;-128.00;-1.00;-1.00;18469;304;7506201;-35
2023/03/13 12:48:48;;;;;;;6.40;1.90;;;;;;;-128.00;-1.00;-1.00;18468;296;7504220;-31
2023/03/13 12:51:30;;;;;;;3.90;1.70;;;;;;;-128.00;-1.00;-1.00;18484;288;7504333;-32
2023/03/13 12:54:27;;;;;;;9.30;1.40;;;;;;;-128.00;-1.00;-1.00;18458;284;7504709;-32